Time;durP1;ratioP1;P1;durP2;ratioP2;P2;SDS_P1;SDS_P2;PMS_P1;PMS_P2;Temp;Humidity;BMP_temperature;BMP_pressure;BME280_temperature;BME280_humidity;BME280_pressure;Samples;Min_cycle;Max_cycle;Signal;HPM_P1;HPM_P2
2021/08/08 00:00:01;;;;;;;11.57;4.45;;;;;;;;;;5016170;28;20061;-77
2021/08/08 00:02:27;;;;;;;9.27;4.13;;;;;;;;;;5016526;28;20029;-75
2021/08/08 00:04:53;;;;;;;7.40;4.53;;;;;;;;;;5016015;28;20113;-76
2021/08/08 00:07:20;;;;;;;6.72;3.92;;;;;;;;;;4998496;28;20061;-77
2021/08/08 00:09:46;;;;;;;8.65;4.05;;;;;;;;;;4998239;28;20448;-74
2021/08/08 00:12:12;;;;;;;6.32;4.22;;;;;;;;;;5015576;28;20105;-75
2021/08/08 00:14:39;;;;;;;4.53;3.55;;;;;;;;;;5015862;28;20388;-76
2021/08/08 00:17:05;;;;;;;7.15;4.18;;;;;;;;;;4998080;28;20056;-78
2021/08/08 00:19:32;;;;;;;6.55;3.55;;;;;;;;;;5016156;28;20034;-78
2021/08/08 00:21:58;;;;;;;6.05;4.07;;;;;;;;;;4998576;28;20030;-76
2021/08/08 00:24:24;;;;;;;7.20;3.35;;;;;;;;;;5015697;28;20029;-78
2021/08/08 00:26:51;;;;;;;6.05;3.70;;;;;;;;;;4997958;28;20056;-76
2021/08/08 00:29:19;;;;;;;7.35;3.38;;;;;;;;;;5015297;28;20033;-76
2021/08/08 00:31:45;;;;;;;6.63;3.75;;;;;;;;;;5015205;28;20025;-75
2021/08/08 00:34:11;;;;;;;5.18;3.40;;;;;;;;;;5003083;28;20049;-75
2021/08/08 00:36:37;;;;;;;5.47;3.40;;;;;;;;;;4995715;28;20047;-77
2021/08/08 00:39:04;;;;;;;6.05;3.92;;;;;;;;;;4995945;28;20101;-76
2021/08/08 00:41:30;;;;;;;7.38;3.50;;;;;;;;;;4995731;28;20034;-77
2021/08/08 00:43:56;;;;;;;6.35;3.65;;;;;;;;;;4995547;28;20106;-77
2021/08/08 00:46:23;;;;;;;6.25;3.00;;;;;;;;;;4995329;28;20082;-77
2021/08/08 00:48:49;;;;;;;3.92;3.03;;;;;;;;;;4978229;28;20026;-78
2021/08/08 00:51:15;;;;;;;5.47;2.95;;;;;;;;;;4995893;28;20097;-78
2021/08/08 00:53:41;;;;;;;4.65;3.10;;;;;;;;;;4995911;28;20014;-76
2021/08/08 00:56:07;;;;;;;5.95;2.92;;;;;;;;;;4978562;28;20022;-76
2021/08/08 00:58:33;;;;;;;4.15;2.83;;;;;;;;;;4995711;28;20058;-77
2021/08/08 01:01:01;;;;;;;6.28;3.33;;;;;;;;;;4995547;28;20027;-76
2021/08/08 01:03:27;;;;;;;4.70;2.85;;;;;;;;;;4995683;28;20052;-77
2021/08/08 01:06:00;;;;;;;4.32;2.88;;;;;;;;;;4995474;28;20376;-77
2021/08/08 01:08:29;;;;;;;3.88;3.35;;;;;;;;;;4995498;28;20027;-77
2021/08/08 01:10:55;;;;;;;5.13;2.95;;;;;;;;;;4995762;28;20029;-78
2021/08/08 01:13:22;;;;;;;4.97;3.05;;;;;;;;;;4996726;28;20029;-78
2021/08/08 01:15:49;;;;;;;4.93;2.90;;;;;;;;;;4996618;28;20027;-76
2021/08/08 01:18:16;;;;;;;5.35;3.30;;;;;;;;;;4980566;28;20023;-77
2021/08/08 01:20:43;;;;;;;5.53;2.90;;;;;;;;;;5003985;28;20026;-76
2021/08/08 01:23:10;;;;;;;4.80;3.05;;;;;;;;;;5004292;28;20073;-77
2021/08/08 01:25:36;;;;;;;3.22;2.63;;;;;;;;;;4997637;28;20026;-76
2021/08/08 01:28:02;;;;;;;6.00;3.08;;;;;;;;;;5004861;28;20026;-76
2021/08/08 01:30:28;;;;;;;6.22;2.85;;;;;;;;;;5015180;28;20096;-78
2021/08/08 01:33:20;;;;;;;4.55;2.85;;;;;;;;;;5014318;28;20078;-75
2021/08/08 01:35:47;;;;;;;3.92;3.05;;;;;;;;;;5011945;28;20034;-77
2021/08/08 01:38:13;;;;;;;5.07;3.25;;;;;;;;;;5001444;28;20022;-78
2021/08/08 01:40:39;;;;;;;5.05;2.72;;;;;;;;;;5015204;28;20082;-79
2021/08/08 01:43:07;;;;;;;5.35;2.90;;;;;;;;;;5015055;28;20546;-76
2021/08/08 01:45:34;;;;;;;4.72;2.90;;;;;;;;;;5014708;28;20506;-76
2021/08/08 01:48:01;;;;;;;3.67;2.50;;;;;;;;;;5015186;28;20416;-78
2021/08/08 01:50:31;;;;;;;4.03;2.72;;;;;;;;;;5014651;28;20033;-79
2021/08/08 01:53:00;;;;;;;4.47;3.10;;;;;;;;;;5014571;28;20018;-77
2021/08/08 01:55:27;;;;;;;5.22;3.35;;;;;;;;;;5013366;28;20026;-76
2021/08/08 01:57:54;;;;;;;5.10;2.72;;;;;;;;;;5014329;28;20192;-77
2021/08/08 02:00:20;;;;;;;3.75;3.30;;;;;;;;;;5014364;28;20032;-75
2021/08/08 02:02:50;;;;;;;3.35;2.85;;;;;;;;;;5014536;28;20435;-77
2021/08/08 02:05:17;;;;;;;4.72;2.85;;;;;;;;;;5014306;28;20476;-76
2021/08/08 02:07:43;;;;;;;4.38;2.90;;;;;;;;;;5013833;28;20068;-76
2021/08/08 02:10:09;;;;;;;4.30;2.60;;;;;;;;;;5013547;28;20022;-77
2021/08/08 02:12:35;;;;;;;3.00;2.67;;;;;;;;;;5013881;28;20018;-76
2021/08/08 02:15:01;;;;;;;6.90;3.72;;;;;;;;;;5012356;28;20018;-77
2021/08/08 02:17:27;;;;;;;2.97;2.47;;;;;;;;;;5013875;28;20084;-77
2021/08/08 02:19:53;;;;;;;6.43;2.67;;;;;;;;;;4999051;28;20485;-78
2021/08/08 02:22:19;;;;;;;4.15;3.10;;;;;;;;;;4993942;28;20031;-76
2021/08/08 02:24:45;;;;;;;3.47;2.83;;;;;;;;;;4994019;28;20028;-77
2021/08/08 02:27:11;;;;;;;4.30;3.03;;;;;;;;;;4996016;28;20034;-78
2021/08/08 02:29:37;;;;;;;4.63;2.65;;;;;;;;;;5001907;28;20445;-77
2021/08/08 02:32:04;;;;;;;3.13;2.50;;;;;;;;;;4976422;28;20034;-76
2021/08/08 02:34:30;;;;;;;3.38;2.90;;;;;;;;;;4993718;28;20034;-77
2021/08/08 02:36:56;;;;;;;3.28;2.55;;;;;;;;;;4994012;28;20022;-76
2021/08/08 02:39:22;;;;;;;3.08;2.50;;;;;;;;;;4976309;28;20081;-75
2021/08/08 02:41:48;;;;;;;4.10;2.65;;;;;;;;;;4993546;28;20058;-77
2021/08/08 02:44:14;;;;;;;3.83;2.67;;;;;;;;;;4993562;28;20057;-76
2021/08/08 02:46:40;;;;;;;3.35;2.72;;;;;;;;;;4993992;28;20376;-76
2021/08/08 02:49:06;;;;;;;2.88;2.58;;;;;;;;;;4993607;28;20088;-78
2021/08/08 02:51:32;;;;;;;3.53;2.58;;;;;;;;;;4993709;28;20492;-75
2021/08/08 02:53:58;;;;;;;8.48;2.90;;;;;;;;;;4993714;28;20034;-78
2021/08/08 02:56:24;;;;;;;4.32;2.20;;;;;;;;;;4993812;28;20030;-77
2021/08/08 02:58:51;;;;;;;2.80;2.47;;;;;;;;;;4993821;28;20034;-77
2021/08/08 03:01:17;;;;;;;4.90;2.72;;;;;;;;;;4994111;28;20057;-76
2021/08/08 03:03:43;;;;;;;4.72;2.47;;;;;;;;;;4993970;28;20026;-77
2021/08/08 03:06:13;;;;;;;3.90;2.50;;;;;;;;;;4976821;28;20507;-76
2021/08/08 03:08:40;;;;;;;2.45;2.08;;;;;;;;;;4994606;28;20073;-74
2021/08/08 03:11:06;;;;;;;2.83;2.28;;;;;;;;;;4983277;28;20025;-73
2021/08/08 03:13:32;;;;;;;4.20;2.08;;;;;;;;;;5001669;28;20026;-76
2021/08/08 03:15:58;;;;;;;2.50;2.03;;;;;;;;;;4997567;28;20026;-75
2021/08/08 03:18:24;;;;;;;4.05;2.40;;;;;;;;;;4993411;28;20077;-76
2021/08/08 03:20:50;;;;;;;3.40;2.08;;;;;;;;;;4993310;28;20038;-77
2021/08/08 03:23:18;;;;;;;3.22;2.20;;;;;;;;;;4992911;28;20019;-77
2021/08/08 03:25:44;;;;;;;4.13;2.65;;;;;;;;;;4993138;28;20026;-77
2021/08/08 03:28:10;;;;;;;3.67;2.30;;;;;;;;;;4998717;28;20030;-78
2021/08/08 03:30:36;;;;;;;3.45;2.25;;;;;;;;;;4983528;28;20488;-76
2021/08/08 03:33:03;;;;;;;4.82;2.25;;;;;;;;;;4992709;28;20116;-77
2021/08/08 03:35:29;;;;;;;6.90;2.60;;;;;;;;;;4993054;28;20033;-75
2021/08/08 03:37:55;;;;;;;5.28;2.30;;;;;;;;;;4993693;28;20429;-76
2021/08/08 03:40:22;;;;;;;3.15;2.20;;;;;;;;;;4993130;28;20077;-78
2021/08/08 03:42:48;;;;;;;3.75;2.20;;;;;;;;;;4993238;28;20060;-74
2021/08/08 03:45:14;;;;;;;2.92;2.60;;;;;;;;;;4993038;28;20038;-77
2021/08/08 03:47:40;;;;;;;2.78;2.40;;;;;;;;;;4993570;28;20477;-77
2021/08/08 03:50:07;;;;;;;4.13;2.10;;;;;;;;;;4993283;28;20031;-76
2021/08/08 03:52:33;;;;;;;7.70;2.47;;;;;;;;;;4993817;28;20018;-77
2021/08/08 03:54:59;;;;;;;4.70;2.60;;;;;;;;;;4979489;28;20428;-78
2021/08/08 03:57:25;;;;;;;3.97;2.45;;;;;;;;;;4997200;28;20026;-77
2021/08/08 03:59:51;;;;;;;2.88;2.30;;;;;;;;;;5002774;28;20026;-76
2021/08/08 04:02:17;;;;;;;4.22;2.88;;;;;;;;;;4997531;28;20037;-77
2021/08/08 04:04:43;;;;;;;5.20;2.60;;;;;;;;;;4996914;28;20030;-77
2021/08/08 04:07:09;;;;;;;5.03;2.60;;;;;;;;;;4997058;28;20498;-76
2021/08/08 04:09:35;;;;;;;4.63;2.72;;;;;;;;;;4996270;28;20030;-76
2021/08/08 04:12:05;;;;;;;6.82;2.80;;;;;;;;;;4996250;28;20018;-77
2021/08/08 04:14:31;;;;;;;3.45;2.78;;;;;;;;;;4979262;28;20429;-75
2021/08/08 04:16:57;;;;;;;4.18;2.75;;;;;;;;;;4998025;28;20018;-77
2021/08/08 04:19:23;;;;;;;4.15;2.45;;;;;;;;;;4996354;28;20156;-78
2021/08/08 04:21:49;;;;;;;4.28;2.78;;;;;;;;;;4996510;28;20477;-76
2021/08/08 04:24:15;;;;;;;4.82;2.42;;;;;;;;;;4978545;28;20027;-76
2021/08/08 04:26:41;;;;;;;3.35;2.40;;;;;;;;;;4995884;28;20076;-78
2021/08/08 04:29:07;;;;;;;4.82;2.50;;;;;;;;;;5013219;28;20476;-76
2021/08/08 04:31:33;;;;;;;2.70;2.03;;;;;;;;;;5015455;28;20447;-77
2021/08/08 04:33:59;;;;;;;2.80;2.00;;;;;;;;;;5005038;28;20046;-79
2021/08/08 04:36:26;;;;;;;5.57;2.60;;;;;;;;;;4995977;28;20140;-77
2021/08/08 04:38:52;;;;;;;3.85;2.20;;;;;;;;;;4996359;28;20038;-76
2021/08/08 04:41:18;;;;;;;3.00;2.20;;;;;;;;;;4996311;28;20113;-76
2021/08/08 04:43:44;;;;;;;3.28;1.90;;;;;;;;;;4996732;28;20058;-77
2021/08/08 04:46:10;;;;;;;6.65;2.17;;;;;;;;;;4996923;28;20041;-78
2021/08/08 04:48:36;;;;;;;2.85;1.90;;;;;;;;;;4996364;28;20058;-77
2021/08/08 04:51:03;;;;;;;3.35;2.20;;;;;;;;;;4985126;28;20030;-75
2021/08/08 04:53:29;;;;;;;3.65;1.65;;;;;;;;;;5014678;28;20026;-78
2021/08/08 04:55:55;;;;;;;4.15;2.45;;;;;;;;;;5015381;28;20037;-79
2021/08/08 04:58:21;;;;;;;3.67;2.40;;;;;;;;;;5014370;28;20076;-78
2021/08/08 05:00:48;;;;;;;4.05;2.20;;;;;;;;;;5017363;28;20029;-79
2021/08/08 05:03:14;;;;;;;2.10;1.83;;;;;;;;;;5019449;28;20025;-76
2021/08/08 05:05:40;;;;;;;4.07;2.00;;;;;;;;;;5017263;28;20404;-77
2021/08/08 05:08:06;;;;;;;2.85;1.70;;;;;;;;;;5016039;28;20018;-76
2021/08/08 05:10:32;;;;;;;3.88;2.67;;;;;;;;;;5014472;28;20037;-77
2021/08/08 05:12:58;;;;;;;2.63;1.80;;;;;;;;;;5015985;28;20105;-75
2021/08/08 05:15:24;;;;;;;3.40;2.08;;;;;;;;;;5016358;28;20601;-76
2021/08/08 05:17:50;;;;;;;3.20;1.80;;;;;;;;;;5018685;28;20101;-76
2021/08/08 05:20:17;;;;;;;2.15;1.95;;;;;;;;;;5016739;28;20492;-76
2021/08/08 05:22:43;;;;;;;2.17;1.92;;;;;;;;;;5021358;28;20034;-74
2021/08/08 05:25:10;;;;;;;1.85;1.70;;;;;;;;;;5019277;28;20025;-78
2021/08/08 05:27:36;;;;;;;2.15;1.80;;;;;;;;;;5016550;28;20537;-74
2021/08/08 05:30:03;;;;;;;1.95;1.67;;;;;;;;;;5017192;28;20036;-76
2021/08/08 05:32:30;;;;;;;2.35;2.00;;;;;;;;;;5016611;28;20022;-76
2021/08/08 05:34:56;;;;;;;6.38;2.45;;;;;;;;;;5013153;28;20510;-75
2021/08/08 05:37:22;;;;;;;2.08;1.88;;;;;;;;;;4995478;28;20065;-77
2021/08/08 05:39:48;;;;;;;1.90;1.70;;;;;;;;;;5001325;28;20014;-76
2021/08/08 05:42:16;;;;;;;1.98;1.75;;;;;;;;;;5016000;28;20436;-75
2021/08/08 05:44:43;;;;;;;4.30;2.40;;;;;;;;;;4997795;28;20029;-77
2021/08/08 05:47:09;;;;;;;3.85;3.10;;;;;;;;;;5015410;28;20105;-77
2021/08/08 05:49:35;;;;;;;4.40;2.30;;;;;;;;;;5016356;28;20038;-76
2021/08/08 05:52:05;;;;;;;4.60;2.65;;;;;;;;;;5017251;28;20029;-76
2021/08/08 05:54:31;;;;;;;4.03;2.30;;;;;;;;;;5019139;28;20018;-78
2021/08/08 05:56:57;;;;;;;4.55;2.70;;;;;;;;;;5019028;28;20046;-75
2021/08/08 05:59:24;;;;;;;5.65;2.88;;;;;;;;;;5015497;28;20037;-76
2021/08/08 06:01:50;;;;;;;3.65;2.53;;;;;;;;;;4997922;28;20377;-75
2021/08/08 06:04:16;;;;;;;5.30;2.40;;;;;;;;;;5017537;28;20100;-76
2021/08/08 06:06:43;;;;;;;4.68;2.47;;;;;;;;;;5017593;28;20045;-76
2021/08/08 06:09:09;;;;;;;2.97;2.65;;;;;;;;;;5017781;28;20384;-74
2021/08/08 06:11:37;;;;;;;4.00;2.60;;;;;;;;;;4998427;28;20037;-75
2021/08/08 06:14:03;;;;;;;4.10;2.90;;;;;;;;;;5017181;28;20045;-76
2021/08/08 06:16:29;;;;;;;4.03;2.60;;;;;;;;;;4998865;28;20080;-77
2021/08/08 06:18:55;;;;;;;3.72;2.55;;;;;;;;;;5000084;28;20045;-75
2021/08/08 06:21:21;;;;;;;3.88;2.58;;;;;;;;;;5000549;28;20030;-75
2021/08/08 06:23:47;;;;;;;5.18;2.83;;;;;;;;;;5017156;28;20021;-75
2021/08/08 06:26:13;;;;;;;5.65;2.30;;;;;;;;;;5015310;28;20400;-78
2021/08/08 06:28:39;;;;;;;4.60;2.60;;;;;;;;;;5014821;28;20049;-78
2021/08/08 06:31:05;;;;;;;4.45;2.38;;;;;;;;;;5002626;28;20014;-74
2021/08/08 06:33:31;;;;;;;3.17;2.30;;;;;;;;;;5013434;28;20052;-74
2021/08/08 06:35:58;;;;;;;2.90;2.53;;;;;;;;;;5013846;28;20379;-75
2021/08/08 06:38:24;;;;;;;3.40;2.30;;;;;;;;;;4995610;28;20021;-74
2021/08/08 06:40:50;;;;;;;5.00;2.47;;;;;;;;;;4995970;28;20026;-76
2021/08/08 06:43:16;;;;;;;5.40;2.63;;;;;;;;;;5016935;28;20080;-77
2021/08/08 06:45:42;;;;;;;4.50;2.80;;;;;;;;;;5019447;28;20045;-75
2021/08/08 06:48:08;;;;;;;3.28;2.03;;;;;;;;;;5020911;28;20022;-76
2021/08/08 06:50:34;;;;;;;4.68;2.90;;;;;;;;;;5004115;28;20045;-76
2021/08/08 06:53:00;;;;;;;4.95;2.60;;;;;;;;;;5003750;28;20096;-75
2021/08/08 06:55:26;;;;;;;5.68;2.90;;;;;;;;;;5020474;28;20084;-77
2021/08/08 06:57:52;;;;;;;4.50;2.78;;;;;;;;;;5002081;28;20026;-75
2021/08/08 07:00:19;;;;;;;5.22;2.63;;;;;;;;;;5001669;28;20484;-74
2021/08/08 07:02:45;;;;;;;4.65;2.92;;;;;;;;;;5000869;28;20041;-77
2021/08/08 07:05:11;;;;;;;4.45;2.80;;;;;;;;;;5001599;28;20369;-75
2021/08/08 07:07:37;;;;;;;7.63;3.80;;;;;;;;;;5019601;28;20468;-76
2021/08/08 07:10:04;;;;;;;4.82;3.20;;;;;;;;;;5002067;28;20033;-77
2021/08/08 07:12:30;;;;;;;9.05;3.30;;;;;;;;;;5019457;28;20026;-76
2021/08/08 07:14:56;;;;;;;6.90;3.30;;;;;;;;;;5019960;28;20516;-75
2021/08/08 07:17:22;;;;;;;4.25;3.00;;;;;;;;;;4999946;28;20049;-76
2021/08/08 07:19:48;;;;;;;5.93;3.20;;;;;;;;;;5000159;28;20060;-76
2021/08/08 07:22:15;;;;;;;9.00;2.95;;;;;;;;;;5000578;28;20088;-75
2021/08/08 07:24:42;;;;;;;3.88;2.95;;;;;;;;;;5017845;28;20050;-76
2021/08/08 07:27:08;;;;;;;4.75;3.10;;;;;;;;;;5018361;28;20022;-74
2021/08/08 07:29:34;;;;;;;7.22;3.00;;;;;;;;;;5022130;28;20025;-74
2021/08/08 07:32:00;;;;;;;6.25;3.20;;;;;;;;;;5023354;28;20041;-75
2021/08/08 07:34:26;;;;;;;7.47;3.58;;;;;;;;;;5007181;28;20046;-77
2021/08/08 07:36:52;;;;;;;5.28;3.20;;;;;;;;;;4984305;28;20029;-78
2021/08/08 07:39:18;;;;;;;6.72;3.63;;;;;;;;;;5002077;28;20041;-74
2021/08/08 07:41:44;;;;;;;6.88;3.47;;;;;;;;;;5002035;28;20452;-75
2021/08/08 07:44:10;;;;;;;4.75;3.65;;;;;;;;;;4984885;28;20065;-76
2021/08/08 07:46:37;;;;;;;5.00;3.67;;;;;;;;;;4984151;28;20512;-76
2021/08/08 07:49:03;;;;;;;7.20;3.63;;;;;;;;;;5001312;28;20080;-75
2021/08/08 07:51:29;;;;;;;6.85;3.78;;;;;;;;;;5002158;28;20501;-76
2021/08/08 07:53:55;;;;;;;8.77;3.80;;;;;;;;;;5002841;28;20033;-77
2021/08/08 07:56:21;;;;;;;10.10;4.63;;;;;;;;;;4987109;28;20027;-73
2021/08/08 07:58:47;;;;;;;9.00;4.13;;;;;;;;;;4985247;28;20026;-75
2021/08/08 08:01:13;;;;;;;6.60;3.83;;;;;;;;;;4985128;28;20104;-75
2021/08/08 08:03:50;;;;;;;6.78;3.90;;;;;;;;;;5002839;28;20034;-76
2021/08/08 08:06:16;;;;;;;8.50;3.80;;;;;;;;;;4983944;28;20393;-75
2021/08/08 08:08:43;;;;;;;9.88;4.50;;;;;;;;;;4984333;28;20054;-77
2021/08/08 08:11:10;;;;;;;9.23;4.40;;;;;;;;;;4994414;28;20033;-78
2021/08/08 08:13:36;;;;;;;9.75;5.53;;;;;;;;;;5019812;28;20496;-75
2021/08/08 08:16:02;;;;;;;8.90;4.65;;;;;;;;;;5016916;28;20078;-76
2021/08/08 08:18:28;;;;;;;13.07;4.90;;;;;;;;;;4984076;28;20033;-75
2021/08/08 08:20:55;;;;;;;11.63;4.88;;;;;;;;;;4983528;28;20035;-77
2021/08/08 08:23:21;;;;;;;9.68;5.38;;;;;;;;;;4984392;28;20045;-75
2021/08/08 08:25:47;;;;;;;9.95;5.05;;;;;;;;;;4984528;28;20030;-75
2021/08/08 08:28:13;;;;;;;12.23;4.40;;;;;;;;;;5005631;28;20018;-75
2021/08/08 08:30:40;;;;;;;12.50;5.57;;;;;;;;;;5020607;28;20022;-75
2021/08/08 08:33:06;;;;;;;13.82;4.47;;;;;;;;;;5017449;28;20396;-76
2021/08/08 08:35:32;;;;;;;6.80;4.07;;;;;;;;;;5022028;28;20060;-74
2021/08/08 08:37:59;;;;;;;9.27;4.18;;;;;;;;;;5005437;28;20448;-78
2021/08/08 08:40:25;;;;;;;12.10;4.68;;;;;;;;;;5008246;28;20093;-74
2021/08/08 08:42:54;;;;;;;15.50;4.72;;;;;;;;;;5026531;28;20026;-76
2021/08/08 08:45:20;;;;;;;11.38;4.85;;;;;;;;;;5025347;28;20029;-75
2021/08/08 08:47:47;;;;;;;12.13;4.45;;;;;;;;;;5019189;28;20025;-77
2021/08/08 08:50:13;;;;;;;9.27;4.15;;;;;;;;;;5012167;28;20556;-77
2021/08/08 08:52:39;;;;;;;10.18;4.25;;;;;;;;;;5001849;28;20116;-76
2021/08/08 08:55:06;;;;;;;14.63;5.00;;;;;;;;;;4997784;28;20022;-75
2021/08/08 08:57:32;;;;;;;10.30;3.83;;;;;;;;;;4998035;28;20033;-75
2021/08/08 08:59:59;;;;;;;10.35;4.47;;;;;;;;;;5011936;28;20416;-73
2021/08/08 09:02:25;;;;;;;9.43;4.78;;;;;;;;;;5017511;28;20040;-76
2021/08/08 09:04:51;;;;;;;8.68;4.85;;;;;;;;;;5015622;28;20105;-74
2021/08/08 09:07:17;;;;;;;9.00;4.60;;;;;;;;;;5003826;28;20037;-77
2021/08/08 09:09:44;;;;;;;9.65;3.92;;;;;;;;;;5003653;28;20495;-74
2021/08/08 09:12:10;;;;;;;7.20;3.75;;;;;;;;;;5018530;28;20029;-74
2021/08/08 09:14:36;;;;;;;6.75;4.20;;;;;;;;;;5005892;28;20037;-76
2021/08/08 09:17:03;;;;;;;6.78;4.07;;;;;;;;;;5020745;28;20022;-75
2021/08/08 09:19:34;;;;;;;6.72;3.70;;;;;;;;;;5020591;28;20156;-74
2021/08/08 09:22:00;;;;;;;11.55;4.15;;;;;;;;;;5018917;28;20022;-73
2021/08/08 09:24:26;;;;;;;8.95;4.20;;;;;;;;;;5021200;28;20412;-74
2021/08/08 09:27:14;;;;;;;9.65;3.95;;;;;;;;;;5019066;28;20033;-74
2021/08/08 09:29:41;;;;;;;6.47;3.53;;;;;;;;;;4990914;28;20026;-75
2021/08/08 09:32:08;;;;;;;7.93;4.13;;;;;;;;;;5013802;28;20038;-74
2021/08/08 09:34:35;;;;;;;13.57;3.72;;;;;;;;;;5012434;28;20054;-74
2021/08/08 09:37:03;;;;;;;10.70;4.75;;;;;;;;;;5018823;28;20036;-75
2021/08/08 09:39:36;;;;;;;8.80;3.90;;;;;;;;;;5017575;28;20041;-74
2021/08/08 09:42:09;;;;;;;8.00;3.90;;;;;;;;;;5000500;28;20029;-75
2021/08/08 09:44:36;;;;;;;6.68;3.50;;;;;;;;;;5015553;28;20045;-76
2021/08/08 09:47:02;;;;;;;7.03;2.85;;;;;;;;;;5009445;28;20078;-76
2021/08/08 09:49:28;;;;;;;7.55;3.45;;;;;;;;;;5005701;28;20034;-75
2021/08/08 09:51:54;;;;;;;5.88;3.35;;;;;;;;;;5015448;28;20072;-74
2021/08/08 09:54:20;;;;;;;9.90;3.50;;;;;;;;;;5016626;28;20113;-74
2021/08/08 09:56:59;;;;;;;9.00;3.38;;;;;;;;;;5015861;28;20101;-75
2021/08/08 09:59:26;;;;;;;6.30;3.53;;;;;;;;;;5012279;28;20090;-75
2021/08/08 10:01:52;;;;;;;6.97;3.15;;;;;;;;;;5010226;28;20108;-75
2021/08/08 10:04:18;;;;;;;8.07;3.30;;;;;;;;;;5011304;28;20104;-75
2021/08/08 10:06:45;;;;;;;6.07;3.25;;;;;;;;;;4985317;28;20651;-76
2021/08/08 10:09:12;;;;;;;6.97;3.30;;;;;;;;;;4994514;28;20421;-77
2021/08/08 10:11:41;;;;;;;9.73;3.65;;;;;;;;;;5000273;28;20056;-74
2021/08/08 10:14:08;;;;;;;5.90;3.25;;;;;;;;;;4991546;28;20022;-74
2021/08/08 10:16:37;;;;;;;7.63;3.30;;;;;;;;;;4983985;28;20023;-74
2021/08/08 10:19:04;;;;;;;6.72;3.90;;;;;;;;;;4995363;28;20495;-77
2021/08/08 10:21:31;;;;;;;8.13;3.22;;;;;;;;;;5009798;28;20485;-75
2021/08/08 10:24:01;;;;;;;6.50;3.33;;;;;;;;;;5007978;28;20018;-76
2021/08/08 10:26:27;;;;;;;4.82;2.78;;;;;;;;;;5012723;28;20033;-75
2021/08/08 10:28:54;;;;;;;5.22;3.35;;;;;;;;;;5007010;28;20038;-76
2021/08/08 10:31:27;;;;;;;4.25;2.97;;;;;;;;;;5010904;28;20030;-74
2021/08/08 10:33:54;;;;;;;4.15;2.90;;;;;;;;;;5012782;28;20049;-77
2021/08/08 10:36:25;;;;;;;5.50;3.45;;;;;;;;;;5013462;28;20028;-76
2021/08/08 10:38:53;;;;;;;7.28;3.42;;;;;;;;;;5013345;28;20022;-76
2021/08/08 10:41:19;;;;;;;5.95;3.20;;;;;;;;;;5012909;28;20037;-76
2021/08/08 10:43:46;;;;;;;4.55;2.47;;;;;;;;;;5013006;28;20030;-77
2021/08/08 10:46:13;;;;;;;5.57;2.88;;;;;;;;;;5013364;28;20022;-74
2021/08/08 10:48:41;;;;;;;5.32;3.22;;;;;;;;;;5011609;28;20022;-74
2021/08/08 10:51:37;;;;;;;5.82;2.67;;;;;;;;;;5013346;28;20389;-76
2021/08/08 10:54:04;;;;;;;4.80;3.17;;;;;;;;;;4997123;28;20030;-76
2021/08/08 10:56:43;;;;;;;4.88;2.60;;;;;;;;;;5012588;28;20026;-76
2021/08/08 10:59:12;;;;;;;4.15;2.50;;;;;;;;;;5004924;28;20030;-76
2021/08/08 11:01:38;;;;;;;5.85;2.60;;;;;;;;;;5007168;28;20399;-75
2021/08/08 11:04:07;;;;;;;7.10;3.05;;;;;;;;;;4983123;28;20067;-75
2021/08/08 11:06:34;;;;;;;6.20;2.78;;;;;;;;;;5000143;28;20064;-76
2021/08/08 11:09:00;;;;;;;5.63;2.72;;;;;;;;;;5008548;28;20033;-75
2021/08/08 11:11:28;;;;;;;6.78;2.50;;;;;;;;;;5015946;28;20029;-74
2021/08/08 11:13:54;;;;;;;4.47;2.60;;;;;;;;;;5001529;28;20022;-74
2021/08/08 11:16:21;;;;;;;5.40;3.25;;;;;;;;;;5009516;28;20105;-74
2021/08/08 11:18:54;;;;;;;3.70;2.63;;;;;;;;;;5008760;28;20422;-74
2021/08/08 11:21:21;;;;;;;4.93;2.55;;;;;;;;;;5001124;28;20497;-75
2021/08/08 11:23:53;;;;;;;5.50;3.22;;;;;;;;;;5002165;28;20029;-75
2021/08/08 11:26:19;;;;;;;4.82;3.03;;;;;;;;;;5006847;28;20256;-75
2021/08/08 11:28:52;;;;;;;5.15;2.50;;;;;;;;;;5016265;28;20025;-73
2021/08/08 11:31:19;;;;;;;4.53;2.40;;;;;;;;;;5017078;28;20417;-75
2021/08/08 11:33:46;;;;;;;5.47;2.88;;;;;;;;;;5016006;28;20046;-74
2021/08/08 11:36:12;;;;;;;3.67;2.65;;;;;;;;;;5015501;28;20021;-76
2021/08/08 11:38:40;;;;;;;6.13;2.30;;;;;;;;;;5017496;28;20512;-78
2021/08/08 11:41:08;;;;;;;6.45;3.35;;;;;;;;;;5015822;28;20025;-75
2021/08/08 11:43:34;;;;;;;6.35;3.10;;;;;;;;;;5010648;28;20025;-74
2021/08/08 11:46:02;;;;;;;7.82;3.00;;;;;;;;;;5016098;28;20092;-76
2021/08/08 11:48:30;;;;;;;4.13;2.63;;;;;;;;;;5008135;28;20379;-73
2021/08/08 11:51:00;;;;;;;6.30;3.47;;;;;;;;;;5013561;28;20516;-74
2021/08/08 11:53:33;;;;;;;4.78;2.90;;;;;;;;;;5002330;28;20480;-76
2021/08/08 11:56:19;;;;;;;5.80;2.92;;;;;;;;;;5016585;28;20022;-74
2021/08/08 11:58:45;;;;;;;4.97;3.22;;;;;;;;;;4996650;28;20076;-74
2021/08/08 12:01:12;;;;;;;6.28;3.30;;;;;;;;;;4998579;28;20022;-74
2021/08/08 12:03:38;;;;;;;6.03;2.50;;;;;;;;;;5004354;28;20041;-75
2021/08/08 12:06:05;;;;;;;4.68;2.90;;;;;;;;;;5012108;28;20100;-75
2021/08/08 12:08:31;;;;;;;5.43;2.78;;;;;;;;;;4996947;28;20030;-76
2021/08/08 12:10:57;;;;;;;5.47;3.10;;;;;;;;;;5000008;28;20021;-74
2021/08/08 12:13:24;;;;;;;5.72;2.85;;;;;;;;;;5001912;28;20022;-74
2021/08/08 12:15:50;;;;;;;4.80;2.45;;;;;;;;;;5015396;28;20061;-74
2021/08/08 12:18:26;;;;;;;3.47;2.50;;;;;;;;;;5013262;28;20421;-74
2021/08/08 12:20:53;;;;;;;3.83;2.25;;;;;;;;;;5016336;28;20048;-76
2021/08/08 12:23:22;;;;;;;5.78;2.33;;;;;;;;;;4999136;28;20077;-77
2021/08/08 12:25:57;;;;;;;6.03;3.00;;;;;;;;;;4996850;28;20093;-75
2021/08/08 12:28:23;;;;;;;3.73;2.30;;;;;;;;;;5014635;28;20029;-73
2021/08/08 12:30:49;;;;;;;6.70;2.92;;;;;;;;;;5015853;28;20391;-74
2021/08/08 12:33:16;;;;;;;5.43;2.63;;;;;;;;;;5015994;28;20042;-75
2021/08/08 12:35:43;;;;;;;4.15;2.72;;;;;;;;;;5016983;28;20033;-74
2021/08/08 12:38:11;;;;;;;5.60;2.55;;;;;;;;;;5000317;28;20393;-74
2021/08/08 12:40:41;;;;;;;3.83;2.20;;;;;;;;;;5000158;28;20033;-74
2021/08/08 12:43:08;;;;;;;5.53;2.78;;;;;;;;;;5011323;28;20034;-75
2021/08/08 12:45:35;;;;;;;6.78;2.58;;;;;;;;;;5006914;28;20037;-74
2021/08/08 12:48:01;;;;;;;4.60;2.58;;;;;;;;;;5010661;28;20026;-75
2021/08/08 12:50:28;;;;;;;4.20;2.67;;;;;;;;;;5014452;28;20029;-76
2021/08/08 12:52:54;;;;;;;4.60;2.50;;;;;;;;;;5015495;28;20028;-75
2021/08/08 12:55:21;;;;;;;3.67;2.50;;;;;;;;;;5015366;28;20077;-75
2021/08/08 12:57:47;;;;;;;5.28;2.42;;;;;;;;;;5016079;28;20448;-75
2021/08/08 13:00:14;;;;;;;4.13;2.38;;;;;;;;;;5009331;28;20034;-74
2021/08/08 13:02:48;;;;;;;8.45;3.15;;;;;;;;;;5015147;28;20026;-74
2021/08/08 13:05:14;;;;;;;3.88;2.65;;;;;;;;;;5013068;28;20022;-75
2021/08/08 13:07:40;;;;;;;7.78;3.08;;;;;;;;;;5013745;28;20026;-75
2021/08/08 13:10:06;;;;;;;4.53;2.25;;;;;;;;;;5013820;28;20025;-74
2021/08/08 13:12:35;;;;;;;5.15;2.70;;;;;;;;;;4998746;28;20489;-74
2021/08/08 13:15:01;;;;;;;4.70;2.28;;;;;;;;;;4993033;28;20030;-75
2021/08/08 13:17:27;;;;;;;5.00;2.28;;;;;;;;;;5015936;28;20022;-75
2021/08/08 13:19:53;;;;;;;3.45;2.00;;;;;;;;;;5005016;28;20054;-75
2021/08/08 13:22:19;;;;;;;2.50;2.03;;;;;;;;;;5001562;28;20034;-75
2021/08/08 13:24:45;;;;;;;4.65;2.10;;;;;;;;;;5008941;28;20038;-74
2021/08/08 13:27:11;;;;;;;3.95;2.30;;;;;;;;;;5016682;28;20037;-74
2021/08/08 13:29:37;;;;;;;4.75;2.75;;;;;;;;;;5009838;28;20034;-76
2021/08/08 13:32:04;;;;;;;4.80;2.55;;;;;;;;;;5016227;28;20026;-73
2021/08/08 13:34:31;;;;;;;3.85;2.30;;;;;;;;;;5003982;28;20120;-76
2021/08/08 13:36:57;;;;;;;7.32;2.70;;;;;;;;;;5011212;28;20033;-75
2021/08/08 13:39:23;;;;;;;4.18;2.05;;;;;;;;;;4998916;28;20060;-77
2021/08/08 13:41:49;;;;;;;5.72;3.00;;;;;;;;;;4994741;28;20408;-77
2021/08/08 13:44:15;;;;;;;4.05;2.38;;;;;;;;;;4997658;28;20037;-75
2021/08/08 13:46:41;;;;;;;9.02;2.88;;;;;;;;;;5014029;28;20492;-76
2021/08/08 13:49:07;;;;;;;4.65;2.63;;;;;;;;;;5009837;28;20029;-74
2021/08/08 13:51:34;;;;;;;3.58;2.20;;;;;;;;;;4994799;28;20030;-76
2021/08/08 13:54:00;;;;;;;6.93;2.38;;;;;;;;;;4999111;28;20037;-74
2021/08/08 13:56:26;;;;;;;2.75;2.00;;;;;;;;;;4994747;28;20049;-77
2021/08/08 13:58:52;;;;;;;3.50;2.38;;;;;;;;;;4995325;28;20492;-75
2021/08/08 14:01:18;;;;;;;6.57;2.40;;;;;;;;;;4996976;28;20034;-75
2021/08/08 14:03:45;;;;;;;4.85;2.10;;;;;;;;;;4998741;28;20032;-74
2021/08/08 14:06:11;;;;;;;4.50;2.38;;;;;;;;;;5000786;28;20390;-75
2021/08/08 14:08:37;;;;;;;5.20;2.40;;;;;;;;;;4995540;28;20084;-76
2021/08/08 14:11:03;;;;;;;3.30;2.17;;;;;;;;;;4998919;28;20061;-77
2021/08/08 14:13:30;;;;;;;4.60;2.15;;;;;;;;;;5008874;28;20045;-75
2021/08/08 14:15:56;;;;;;;6.90;2.20;;;;;;;;;;4994145;28;20018;-75
2021/08/08 14:18:22;;;;;;;1.90;1.80;;;;;;;;;;5004018;28;20493;-75
2021/08/08 14:20:48;;;;;;;5.68;2.35;;;;;;;;;;5004802;28;20025;-76
2021/08/08 14:23:14;;;;;;;3.78;2.30;;;;;;;;;;5011558;28;20026;-77
2021/08/08 14:25:40;;;;;;;3.95;2.13;;;;;;;;;;5009939;28;20026;-78
2021/08/08 14:28:06;;;;;;;4.80;2.42;;;;;;;;;;5002749;28;20104;-74
2021/08/08 14:30:32;;;;;;;3.25;2.30;;;;;;;;;;5003940;28;20034;-74
2021/08/08 14:32:58;;;;;;;4.38;2.40;;;;;;;;;;5013620;28;20048;-75
2021/08/08 14:35:24;;;;;;;5.60;2.30;;;;;;;;;;5013235;28;20029;-73
2021/08/08 14:37:50;;;;;;;6.80;2.45;;;;;;;;;;5003238;28;20088;-74
2021/08/08 14:40:17;;;;;;;4.93;2.70;;;;;;;;;;5005708;28;20420;-77